sensor_id;sensor_type;location;lat;lon;timestamp;pressure;altitude;pressure_sealevel;temperature;humidity
11099;BME280;12223;42.650;23.364;2023-12-20T00:00:37;95090.78;;;5.53;61.89
11099;BME280;12223;42.650;23.364;2023-12-20T00:03:04;95094.56;;;5.80;62.30
11099;BME280;12223;42.650;23.364;2023-12-20T00:05:31;95091.78;;;5.96;61.32
11099;BME280;12223;42.650;23.364;2023-12-20T00:07:58;95083.09;;;5.95;60.92
11099;BME280;12223;42.650;23.364;2023-12-20T00:10:25;95072.34;;;6.05;60.82
11099;BME280;12223;42.650;23.364;2023-12-20T00:12:52;95074.41;;;6.10;60.27
11099;BME280;12223;42.650;23.364;2023-12-20T00:15:20;95073.78;;;5.78;60.68
11099;BME280;12223;42.650;23.364;2023-12-20T00:17:47;95081.75;;;5.55;60.77
11099;BME280;12223;42.650;23.364;2023-12-20T00:20:14;95077.41;;;5.48;60.77
11099;BME280;12223;42.650;23.364;2023-12-20T00:22:40;95070.53;;;5.47;60.58
11099;BME280;12223;42.650;23.364;2023-12-20T00:25:07;95070.91;;;5.29;61.17
11099;BME280;12223;42.650;23.364;2023-12-20T00:27:34;95073.88;;;5.26;61.78
11099;BME280;12223;42.650;23.364;2023-12-20T00:30:01;95066.13;;;5.47;61.47
11099;BME280;12223;42.650;23.364;2023-12-20T00:32:29;95064.47;;;5.46;61.56
11099;BME280;12223;42.650;23.364;2023-12-20T00:34:56;95061.75;;;5.25;62.60
11099;BME280;12223;42.650;23.364;2023-12-20T00:37:23;95051.03;;;5.05;63.53
11099;BME280;12223;42.650;23.364;2023-12-20T00:39:50;95048.63;;;4.96;64.69
11099;BME280;12223;42.650;23.364;2023-12-20T00:42:17;95042.44;;;5.26;63.63
11099;BME280;12223;42.650;23.364;2023-12-20T00:44:43;95045.44;;;5.23;62.67
11099;BME280;12223;42.650;23.364;2023-12-20T00:47:10;95041.72;;;5.17;63.46
11099;BME280;12223;42.650;23.364;2023-12-20T00:49:40;95038.88;;;4.90;64.37
11099;BME280;12223;42.650;23.364;2023-12-20T00:52:08;95025.41;;;4.40;66.58
11099;BME280;12223;42.650;23.364;2023-12-20T00:54:34;95038.69;;;4.76;67.54
11099;BME280;12223;42.650;23.364;2023-12-20T00:57:01;95031.03;;;4.90;68.51
11099;BME280;12223;42.650;23.364;2023-12-20T00:59:28;95029.28;;;5.49;66.02
11099;BME280;12223;42.650;23.364;2023-12-20T01:01:55;95026.44;;;5.65;64.46
11099;BME280;12223;42.650;23.364;2023-12-20T01:04:22;95025.28;;;5.68;64.12
11099;BME280;12223;42.650;23.364;2023-12-20T01:06:50;95017.63;;;5.37;64.10
11099;BME280;12223;42.650;23.364;2023-12-20T01:09:16;95010.59;;;5.37;65.38
11099;BME280;12223;42.650;23.364;2023-12-20T01:11:43;95013.34;;;5.50;64.66
11099;BME280;12223;42.650;23.364;2023-12-20T01:14:11;95013.81;;;5.54;62.86
11099;BME280;12223;42.650;23.364;2023-12-20T01:16:38;95009.59;;;5.23;61.78
11099;BME280;12223;42.650;23.364;2023-12-20T01:19:05;94997.50;;;5.22;61.32
11099;BME280;12223;42.650;23.364;2023-12-20T01:21:32;95000.88;;;4.94;61.58
11099;BME280;12223;42.650;23.364;2023-12-20T01:24:00;95012.56;;;4.68;63.04
11099;BME280;12223;42.650;23.364;2023-12-20T01:26:27;95003.34;;;4.95;62.43
11099;BME280;12223;42.650;23.364;2023-12-20T01:28:54;95001.91;;;5.07;61.72
11099;BME280;12223;42.650;23.364;2023-12-20T01:31:20;94985.38;;;5.21;61.71
11099;BME280;12223;42.650;23.364;2023-12-20T01:33:47;94989.09;;;5.27;60.88
11099;BME280;12223;42.650;23.364;2023-12-20T01:36:14;94990.03;;;4.82;61.76
11099;BME280;12223;42.650;23.364;2023-12-20T01:38:41;94983.19;;;4.81;62.69
11099;BME280;12223;42.650;23.364;2023-12-20T01:41:09;94986.88;;;4.34;65.58
11099;BME280;12223;42.650;23.364;2023-12-20T01:43:35;94948.91;;;4.61;64.83
11099;BME280;12223;42.650;23.364;2023-12-20T01:46:02;94972.66;;;4.89;64.77
11099;BME280;12223;42.650;23.364;2023-12-20T01:48:30;94961.72;;;4.71;65.12
11099;BME280;12223;42.650;23.364;2023-12-20T01:50:58;94965.72;;;4.96;65.66
11099;BME280;12223;42.650;23.364;2023-12-20T01:53:27;94946.94;;;4.78;65.87
11099;BME280;12223;42.650;23.364;2023-12-20T01:55:55;94957.50;;;4.84;66.61
11099;BME280;12223;42.650;23.364;2023-12-20T01:58:24;94947.91;;;5.21;66.34
11099;BME280;12223;42.650;23.364;2023-12-20T02:00:52;94952.19;;;5.58;64.26
11099;BME280;12223;42.650;23.364;2023-12-20T02:03:19;94941.28;;;5.76;62.84
11099;BME280;12223;42.650;23.364;2023-12-20T02:05:46;94941.88;;;5.71;62.14
11099;BME280;12223;42.650;23.364;2023-12-20T02:08:14;94933.13;;;5.64;61.91
11099;BME280;12223;42.650;23.364;2023-12-20T02:10:40;94940.19;;;5.85;61.18
11099;BME280;12223;42.650;23.364;2023-12-20T02:13:07;94933.19;;;5.71;60.81
11099;BME280;12223;42.650;23.364;2023-12-20T02:15:35;94923.28;;;5.66;61.00
11099;BME280;12223;42.650;23.364;2023-12-20T02:18:04;94936.13;;;5.46;60.07
11099;BME280;12223;42.650;23.364;2023-12-20T02:20:31;94927.13;;;5.49;59.80
11099;BME280;12223;42.650;23.364;2023-12-20T02:22:59;94927.94;;;5.35;59.49
11099;BME280;12223;42.650;23.364;2023-12-20T02:25:25;94921.56;;;5.08;60.78
11099;BME280;12223;42.650;23.364;2023-12-20T02:27:52;94928.59;;;5.22;60.36
11099;BME280;12223;42.650;23.364;2023-12-20T02:30:19;94923.94;;;5.53;59.95
11099;BME280;12223;42.650;23.364;2023-12-20T02:32:46;94918.53;;;5.55;60.14
11099;BME280;12223;42.650;23.364;2023-12-20T02:35:13;94908.63;;;5.72;59.77
11099;BME280;12223;42.650;23.364;2023-12-20T02:37:39;94909.53;;;5.64;58.82
11099;BME280;12223;42.650;23.364;2023-12-20T02:40:08;94900.25;;;5.61;59.59
11099;BME280;12223;42.650;23.364;2023-12-20T02:42:35;94905.25;;;5.78;59.33
11099;BME280;12223;42.650;23.364;2023-12-20T02:45:03;94898.31;;;5.49;58.67
11099;BME280;12223;42.650;23.364;2023-12-20T02:47:29;94898.13;;;4.70;59.90
11099;BME280;12223;42.650;23.364;2023-12-20T02:49:56;94901.97;;;4.74;59.62
11099;BME280;12223;42.650;23.364;2023-12-20T02:52:23;94905.31;;;5.12;58.94
11099;BME280;12223;42.650;23.364;2023-12-20T02:54:50;94901.69;;;5.13;58.54
11099;BME280;12223;42.650;23.364;2023-12-20T02:57:18;94900.47;;;5.45;57.86
11099;BME280;12223;42.650;23.364;2023-12-20T02:59:45;94905.59;;;5.17;57.74
11099;BME280;12223;42.650;23.364;2023-12-20T03:02:12;94901.09;;;4.97;59.22
11099;BME280;12223;42.650;23.364;2023-12-20T03:04:38;94899.06;;;5.28;58.54
11099;BME280;12223;42.650;23.364;2023-12-20T03:07:05;94900.53;;;5.31;58.75
11099;BME280;12223;42.650;23.364;2023-12-20T03:09:32;94905.31;;;5.12;58.22
11099;BME280;12223;42.650;23.364;2023-12-20T03:11:59;94899.38;;;4.74;57.99
11099;BME280;12223;42.650;23.364;2023-12-20T03:14:27;94896.13;;;4.72;58.56
11099;BME280;12223;42.650;23.364;2023-12-20T03:16:53;94900.28;;;4.96;57.77
11099;BME280;12223;42.650;23.364;2023-12-20T03:19:20;94896.28;;;5.15;57.73
11099;BME280;12223;42.650;23.364;2023-12-20T03:21:47;94899.47;;;4.81;58.70
11099;BME280;12223;42.650;23.364;2023-12-20T03:24:14;94903.34;;;4.70;60.16
11099;BME280;12223;42.650;23.364;2023-12-20T03:26:41;94900.72;;;4.56;59.76
11099;BME280;12223;42.650;23.364;2023-12-20T03:29:07;94893.47;;;4.43;60.12
11099;BME280;12223;42.650;23.364;2023-12-20T03:31:36;94881.06;;;4.60;59.72
11099;BME280;12223;42.650;23.364;2023-12-20T03:34:02;94887.09;;;4.75;59.03
11099;BME280;12223;42.650;23.364;2023-12-20T03:36:29;94894.41;;;4.65;58.19
11099;BME280;12223;42.650;23.364;2023-12-20T03:38:56;94884.88;;;4.20;59.36
11099;BME280;12223;42.650;23.364;2023-12-20T03:41:22;94888.28;;;4.05;60.26
11099;BME280;12223;42.650;23.364;2023-12-20T03:43:49;94881.53;;;4.11;60.52
11099;BME280;12223;42.650;23.364;2023-12-20T03:46:16;94881.72;;;4.10;60.63
11099;BME280;12223;42.650;23.364;2023-12-20T03:48:44;94875.34;;;3.89;61.63
11099;BME280;12223;42.650;23.364;2023-12-20T03:51:11;94878.13;;;3.88;62.14
11099;BME280;12223;42.650;23.364;2023-12-20T03:53:37;94882.31;;;3.97;62.20
11099;BME280;12223;42.650;23.364;2023-12-20T03:56:06;94875.03;;;4.07;62.34
11099;BME280;12223;42.650;23.364;2023-12-20T03:58:33;94876.22;;;4.19;61.83
11099;BME280;12223;42.650;23.364;2023-12-20T04:01:00;94868.16;;;3.91;62.05
11099;BME280;12223;42.650;23.364;2023-12-20T04:03:26;94860.00;;;3.72;61.42
11099;BME280;12223;42.650;23.364;2023-12-20T04:05:55;94865.34;;;3.78;62.59
11099;BME280;12223;42.650;23.364;2023-12-20T04:08:21;94862.97;;;4.06;62.30
11099;BME280;12223;42.650;23.364;2023-12-20T04:10:49;94868.81;;;4.08;61.57
11099;BME280;12223;42.650;23.364;2023-12-20T04:13:16;94848.53;;;3.95;61.65
11099;BME280;12223;42.650;23.364;2023-12-20T04:15:42;94862.13;;;3.91;62.33
11099;BME280;12223;42.650;23.364;2023-12-20T04:18:09;94848.56;;;4.10;62.48
11099;BME280;12223;42.650;23.364;2023-12-20T04:20:36;94848.47;;;4.18;63.00
11099;BME280;12223;42.650;23.364;2023-12-20T04:23:04;94846.06;;;4.31;62.75
11099;BME280;12223;42.650;23.364;2023-12-20T04:25:31;94851.84;;;4.41;63.69
11099;BME280;12223;42.650;23.364;2023-12-20T04:27:57;94854.88;;;4.30;62.50
11099;BME280;12223;42.650;23.364;2023-12-20T04:30:24;94848.38;;;4.12;62.25
11099;BME280;12223;42.650;23.364;2023-12-20T04:32:51;94845.69;;;3.82;62.32
11099;BME280;12223;42.650;23.364;2023-12-20T04:35:18;94833.09;;;3.86;62.54
11099;BME280;12223;42.650;23.364;2023-12-20T04:37:44;94827.31;;;3.76;62.46
11099;BME280;12223;42.650;23.364;2023-12-20T04:40:13;94823.22;;;3.58;62.66
11099;BME280;12223;42.650;23.364;2023-12-20T04:42:39;94834.41;;;2.52;67.08
11099;BME280;12223;42.650;23.364;2023-12-20T04:45:07;94832.53;;;3.07;68.09
11099;BME280;12223;42.650;23.364;2023-12-20T04:47:34;94830.63;;;3.70;65.03
11099;BME280;12223;42.650;23.364;2023-12-20T04:50:01;94832.03;;;3.04;64.36
11099;BME280;12223;42.650;23.364;2023-12-20T04:52:27;94826.16;;;3.55;64.41
11099;BME280;12223;42.650;23.364;2023-12-20T04:54:54;94823.06;;;3.06;65.56
11099;BME280;12223;42.650;23.364;2023-12-20T04:57:22;94830.91;;;3.29;65.93
11099;BME280;12223;42.650;23.364;2023-12-20T04:59:49;94824.34;;;3.79;63.71
11099;BME280;12223;42.650;23.364;2023-12-20T05:02:16;94821.63;;;4.10;59.71
11099;BME280;12223;42.650;23.364;2023-12-20T05:04:42;94819.16;;;3.33;61.87
11099;BME280;12223;42.650;23.364;2023-12-20T05:07:09;94817.78;;;3.83;61.10
11099;BME280;12223;42.650;23.364;2023-12-20T05:09:36;94818.41;;;3.47;59.89
11099;BME280;12223;42.650;23.364;2023-12-20T05:12:03;94823.34;;;1.46;70.94
11099;BME280;12223;42.650;23.364;2023-12-20T05:14:31;94813.31;;;2.30;71.67
11099;BME280;12223;42.650;23.364;2023-12-20T05:16:58;94821.88;;;1.59;70.22
11099;BME280;12223;42.650;23.364;2023-12-20T05:19:25;94831.47;;;1.35;73.58
11099;BME280;12223;42.650;23.364;2023-12-20T05:21:52;94814.94;;;2.31;72.67
11099;BME280;12223;42.650;23.364;2023-12-20T05:24:18;94814.81;;;2.95;66.50
11099;BME280;12223;42.650;23.364;2023-12-20T05:26:45;94804.38;;;2.95;64.60
11099;BME280;12223;42.650;23.364;2023-12-20T05:29:12;94797.53;;;2.94;64.86
11099;BME280;12223;42.650;23.364;2023-12-20T05:31:40;94806.44;;;1.42;70.39
11099;BME280;12223;42.650;23.364;2023-12-20T05:34:07;94803.78;;;1.01;79.50
11099;BME280;12223;42.650;23.364;2023-12-20T05:36:33;94803.63;;;1.92;75.70
11099;BME280;12223;42.650;23.364;2023-12-20T05:39:00;94812.13;;;1.29;80.56
11099;BME280;12223;42.650;23.364;2023-12-20T05:41:27;94813.75;;;0.14;91.96
11099;BME280;12223;42.650;23.364;2023-12-20T05:43:54;94810.00;;;1.00;91.75
11099;BME280;12223;42.650;23.364;2023-12-20T05:46:20;94799.69;;;2.04;88.14
11099;BME280;12223;42.650;23.364;2023-12-20T05:48:49;94796.69;;;2.39;82.94
11099;BME280;12223;42.650;23.364;2023-12-20T05:51:17;94787.69;;;3.04;78.35
11099;BME280;12223;42.650;23.364;2023-12-20T05:53:43;94786.94;;;3.18;74.16
11099;BME280;12223;42.650;23.364;2023-12-20T05:56:10;94794.91;;;3.02;76.19
11099;BME280;12223;42.650;23.364;2023-12-20T05:58:38;94775.88;;;3.39;76.06
11099;BME280;12223;42.650;23.364;2023-12-20T06:01:05;94789.28;;;2.51;74.80
11099;BME280;12223;42.650;23.364;2023-12-20T06:03:33;94785.31;;;2.94;76.93
11099;BME280;12223;42.650;23.364;2023-12-20T06:06:06;94770.50;;;3.55;74.74
11099;BME280;12223;42.650;23.364;2023-12-20T06:08:32;94767.97;;;3.84;70.57
11099;BME280;12223;42.650;23.364;2023-12-20T06:10:59;94774.31;;;3.07;70.61
11099;BME280;12223;42.650;23.364;2023-12-20T06:13:26;94776.28;;;3.05;72.25
11099;BME280;12223;42.650;23.364;2023-12-20T06:15:54;94769.53;;;3.56;71.37
11099;BME280;12223;42.650;23.364;2023-12-20T06:18:21;94782.78;;;3.32;68.77
11099;BME280;12223;42.650;23.364;2023-12-20T06:20:47;94789.97;;;3.30;69.72
11099;BME280;12223;42.650;23.364;2023-12-20T06:23:16;94789.47;;;3.72;68.86
11099;BME280;12223;42.650;23.364;2023-12-20T06:25:44;94790.66;;;3.01;68.22
11099;BME280;12223;42.650;23.364;2023-12-20T06:28:10;94782.59;;;3.56;68.23
11099;BME280;12223;42.650;23.364;2023-12-20T06:30:39;94790.44;;;3.33;66.77
11099;BME280;12223;42.650;23.364;2023-12-20T06:33:06;94789.38;;;3.65;65.63
11099;BME280;12223;42.650;23.364;2023-12-20T06:35:35;94780.56;;;3.66;64.54
11099;BME280;12223;42.650;23.364;2023-12-20T06:38:02;94776.72;;;3.91;65.29
11099;BME280;12223;42.650;23.364;2023-12-20T06:40:30;94785.75;;;4.18;63.83
11099;BME280;12223;42.650;23.364;2023-12-20T06:42:57;94763.84;;;4.19;63.58
11099;BME280;12223;42.650;23.364;2023-12-20T06:45:25;94773.47;;;3.89;64.60
11099;BME280;12223;42.650;23.364;2023-12-20T06:47:51;94764.84;;;4.48;63.89
11099;BME280;12223;42.650;23.364;2023-12-20T06:50:20;94763.94;;;4.55;61.74
11099;BME280;12223;42.650;23.364;2023-12-20T06:52:46;94744.41;;;4.72;62.09
11099;BME280;12223;42.650;23.364;2023-12-20T06:55:13;94761.22;;;4.99;60.90
11099;BME280;12223;42.650;23.364;2023-12-20T06:57:41;94762.59;;;5.16;61.08
11099;BME280;12223;42.650;23.364;2023-12-20T07:00:10;94763.78;;;5.14;61.17
11099;BME280;12223;42.650;23.364;2023-12-20T07:02:38;94755.59;;;5.45;60.95
11099;BME280;12223;42.650;23.364;2023-12-20T07:05:06;94732.47;;;5.97;58.69
11099;BME280;12223;42.650;23.364;2023-12-20T07:07:32;94737.03;;;6.51;57.08
11099;BME280;12223;42.650;23.364;2023-12-20T07:10:00;94745.00;;;6.84;55.27
11099;BME280;12223;42.650;23.364;2023-12-20T07:12:27;94737.38;;;7.02;56.32
11099;BME280;12223;42.650;23.364;2023-12-20T07:14:55;94737.47;;;7.68;56.05
11099;BME280;12223;42.650;23.364;2023-12-20T07:17:21;94729.16;;;8.30;53.66
11099;BME280;12223;42.650;23.364;2023-12-20T07:19:48;94726.81;;;9.43;51.59
11099;BME280;12223;42.650;23.364;2023-12-20T07:22:15;94734.66;;;10.30;49.33
11099;BME280;12223;42.650;23.364;2023-12-20T07:24:42;94717.97;;;11.03;46.25
11099;BME280;12223;42.650;23.364;2023-12-20T07:27:08;94710.09;;;12.09;44.15
11099;BME280;12223;42.650;23.364;2023-12-20T07:29:35;94713.09;;;12.99;41.66
11099;BME280;12223;42.650;23.364;2023-12-20T07:32:04;94710.78;;;13.14;39.87
11099;BME280;12223;42.650;23.364;2023-12-20T07:34:31;94702.22;;;14.02;39.06
11099;BME280;12223;42.650;23.364;2023-12-20T07:36:58;94706.38;;;13.98;36.28
11099;BME280;12223;42.650;23.364;2023-12-20T07:39:24;94698.69;;;13.35;36.63
11099;BME280;12223;42.650;23.364;2023-12-20T07:41:51;94708.56;;;12.60;37.93
11099;BME280;12223;42.650;23.364;2023-12-20T07:44:18;94720.56;;;12.16;38.92
11099;BME280;12223;42.650;23.364;2023-12-20T07:46:45;94720.84;;;11.73;39.82
11099;BME280;12223;42.650;23.364;2023-12-20T07:49:13;94712.78;;;11.26;40.68
11099;BME280;12223;42.650;23.364;2023-12-20T07:51:39;94715.59;;;10.03;42.53
11099;BME280;12223;42.650;23.364;2023-12-20T07:54:06;94715.44;;;7.89;48.07
11099;BME280;12223;42.650;23.364;2023-12-20T07:56:33;94722.88;;;8.18;48.75
11099;BME280;12223;42.650;23.364;2023-12-20T07:59:00;94716.63;;;7.99;50.19
11099;BME280;12223;42.650;23.364;2023-12-20T08:01:27;94716.97;;;8.29;50.47
11099;BME280;12223;42.650;23.364;2023-12-20T08:03:53;94711.06;;;8.54;50.56
11099;BME280;12223;42.650;23.364;2023-12-20T08:06:22;94712.97;;;8.84;50.08
11099;BME280;12223;42.650;23.364;2023-12-20T08:08:49;94700.03;;;9.14;49.02
11099;BME280;12223;42.650;23.364;2023-12-20T08:11:16;94703.69;;;9.45;49.47
11099;BME280;12223;42.650;23.364;2023-12-20T08:13:42;94702.19;;;9.55;48.22
11099;BME280;12223;42.650;23.364;2023-12-20T08:16:09;94704.19;;;9.60;47.84
11099;BME280;12223;42.650;23.364;2023-12-20T08:18:38;94690.84;;;9.55;48.29
11099;BME280;12223;42.650;23.364;2023-12-20T08:21:05;94694.31;;;8.86;50.10
11099;BME280;12223;42.650;23.364;2023-12-20T08:23:34;94697.03;;;8.02;52.33
11099;BME280;12223;42.650;23.364;2023-12-20T08:26:04;94692.50;;;8.35;52.76
11099;BME280;12223;42.650;23.364;2023-12-20T08:28:31;94687.34;;;8.60;51.64
11099;BME280;12223;42.650;23.364;2023-12-20T08:30:58;94701.88;;;7.72;54.29
11099;BME280;12223;42.650;23.364;2023-12-20T08:33:24;94689.72;;;8.04;55.18
11099;BME280;12223;42.650;23.364;2023-12-20T08:35:51;94678.75;;;8.40;53.57
11099;BME280;12223;42.650;23.364;2023-12-20T08:38:18;94666.41;;;8.21;54.39
11099;BME280;12223;42.650;23.364;2023-12-20T08:40:46;94666.50;;;7.81;55.53
11099;BME280;12223;42.650;23.364;2023-12-20T08:43:13;94663.25;;;7.73;55.57
11099;BME280;12223;42.650;23.364;2023-12-20T08:45:40;94670.06;;;6.68;59.19
11099;BME280;12223;42.650;23.364;2023-12-20T08:48:07;94669.84;;;5.53;67.56
11099;BME280;12223;42.650;23.364;2023-12-20T08:50:34;94661.25;;;6.35;67.98
11099;BME280;12223;42.650;23.364;2023-12-20T08:53:00;94659.03;;;6.99;63.46
11099;BME280;12223;42.650;23.364;2023-12-20T08:55:27;94670.38;;;6.45;65.31
11099;BME280;12223;42.650;23.364;2023-12-20T08:57:57;94661.88;;;7.31;63.49
11099;BME280;12223;42.650;23.364;2023-12-20T09:00:24;94662.41;;;6.80;65.46
11099;BME280;12223;42.650;23.364;2023-12-20T09:02:53;94651.16;;;7.06;63.85
11099;BME280;12223;42.650;23.364;2023-12-20T09:05:19;94652.53;;;7.81;59.97
11099;BME280;12223;42.650;23.364;2023-12-20T09:07:46;94623.31;;;8.22;58.05
11099;BME280;12223;42.650;23.364;2023-12-20T09:10:13;94627.41;;;7.98;59.24
11099;BME280;12223;42.650;23.364;2023-12-20T09:12:40;94612.13;;;8.46;57.98
11099;BME280;12223;42.650;23.364;2023-12-20T09:15:09;94593.75;;;8.71;56.38
11099;BME280;12223;42.650;23.364;2023-12-20T09:17:36;94599.03;;;8.20;57.36
11099;BME280;12223;42.650;23.364;2023-12-20T09:20:03;94591.41;;;8.05;58.79
11099;BME280;12223;42.650;23.364;2023-12-20T09:22:32;94588.50;;;8.26;58.87
11099;BME280;12223;42.650;23.364;2023-12-20T09:24:59;94587.97;;;8.87;56.43
11099;BME280;12223;42.650;23.364;2023-12-20T09:27:25;94572.13;;;8.94;55.57
11099;BME280;12223;42.650;23.364;2023-12-20T09:29:52;94568.69;;;8.62;56.19
11099;BME280;12223;42.650;23.364;2023-12-20T09:32:21;94567.66;;;8.63;57.62
11099;BME280;12223;42.650;23.364;2023-12-20T09:34:48;94564.78;;;8.71;56.57
11099;BME280;12223;42.650;23.364;2023-12-20T09:37:14;94551.91;;;8.87;56.04
11099;BME280;12223;42.650;23.364;2023-12-20T09:39:41;94552.69;;;7.61;59.43
11099;BME280;12223;42.650;23.364;2023-12-20T09:42:11;94536.56;;;6.19;67.12
11099;BME280;12223;42.650;23.364;2023-12-20T09:44:39;94539.88;;;7.07;68.63
11099;BME280;12223;42.650;23.364;2023-12-20T09:47:08;94551.88;;;7.67;64.38
11099;BME280;12223;42.650;23.364;2023-12-20T09:49:36;94545.94;;;7.91;62.08
11099;BME280;12223;42.650;23.364;2023-12-20T09:52:05;94536.53;;;8.60;59.36
11099;BME280;12223;42.650;23.364;2023-12-20T09:54:33;94517.63;;;8.94;58.11
11099;BME280;12223;42.650;23.364;2023-12-20T09:57:00;94512.59;;;9.36;57.80
11099;BME280;12223;42.650;23.364;2023-12-20T09:59:26;94520.59;;;9.84;55.56
11099;BME280;12223;42.650;23.364;2023-12-20T10:01:55;94520.84;;;10.12;55.51
11099;BME280;12223;42.650;23.364;2023-12-20T10:04:22;94504.63;;;10.86;52.78
11099;BME280;12223;42.650;23.364;2023-12-20T10:06:52;94509.47;;;11.36;51.05
11099;BME280;12223;42.650;23.364;2023-12-20T10:09:19;94504.97;;;11.60;50.13
11099;BME280;12223;42.650;23.364;2023-12-20T10:11:45;94482.47;;;11.11;50.23
11099;BME280;12223;42.650;23.364;2023-12-20T10:14:12;94490.13;;;8.65;54.54
11099;BME280;12223;42.650;23.364;2023-12-20T10:16:40;94490.28;;;8.95;57.80
11099;BME280;12223;42.650;23.364;2023-12-20T10:19:07;94488.44;;;9.75;54.97
11099;BME280;12223;42.650;23.364;2023-12-20T10:21:34;94476.28;;;9.92;54.38
11099;BME280;12223;42.650;23.364;2023-12-20T10:24:02;94479.94;;;9.55;54.53
11099;BME280;12223;42.650;23.364;2023-12-20T10:26:29;94471.88;;;9.32;56.15
11099;BME280;12223;42.650;23.364;2023-12-20T10:28:59;94462.63;;;9.95;54.77
11099;BME280;12223;42.650;23.364;2023-12-20T10:31:27;94450.63;;;10.29;53.64
11099;BME280;12223;42.650;23.364;2023-12-20T10:33:56;94458.38;;;10.54;53.44
11099;BME280;12223;42.650;23.364;2023-12-20T10:36:24;94456.56;;;10.55;53.89
11099;BME280;12223;42.650;23.364;2023-12-20T10:38:52;94451.53;;;10.76;53.12
11099;BME280;12223;42.650;23.364;2023-12-20T10:41:24;94447.53;;;10.85;52.75
11099;BME280;12223;42.650;23.364;2023-12-20T10:43:51;94420.97;;;11.27;50.16
11099;BME280;12223;42.650;23.364;2023-12-20T10:46:19;94421.41;;;11.36;49.48
11099;BME280;12223;42.650;23.364;2023-12-20T10:48:47;94420.88;;;10.99;50.24
11099;BME280;12223;42.650;23.364;2023-12-20T10:51:17;94397.22;;;10.80;51.15
11099;BME280;12223;42.650;23.364;2023-12-20T10:53:46;94431.19;;;11.35;50.74
11099;BME280;12223;42.650;23.364;2023-12-20T10:56:16;94424.47;;;10.28;52.23
11099;BME280;12223;42.650;23.364;2023-12-20T10:58:45;94419.94;;;9.68;53.78
11099;BME280;12223;42.650;23.364;2023-12-20T11:01:13;94409.78;;;9.72;53.70
11099;BME280;12223;42.650;23.364;2023-12-20T11:03:43;94407.31;;;9.41;55.38
11099;BME280;12223;42.650;23.364;2023-12-20T11:09:04;94404.09;;;9.39;57.04
11099;BME280;12223;42.650;23.364;2023-12-20T11:11:41;94401.88;;;8.99;57.29
11099;BME280;12223;42.650;23.364;2023-12-20T11:14:16;94406.19;;;8.51;59.87
11099;BME280;12223;42.650;23.364;2023-12-20T11:16:45;94380.31;;;8.91;59.08
11099;BME280;12223;42.650;23.364;2023-12-20T11:19:12;94386.69;;;8.58;59.58
11099;BME280;12223;42.650;23.364;2023-12-20T11:21:39;94377.88;;;8.21;61.32
11099;BME280;12223;42.650;23.364;2023-12-20T11:24:06;94378.78;;;7.77;64.15
11099;BME280;12223;42.650;23.364;2023-12-20T11:26:33;94385.88;;;6.48;72.16
11099;BME280;12223;42.650;23.364;2023-12-20T11:29:31;94368.41;;;7.00;71.65
11099;BME280;12223;42.650;23.364;2023-12-20T11:31:59;94355.56;;;7.67;70.47
11099;BME280;12223;42.650;23.364;2023-12-20T11:34:27;94343.44;;;8.23;67.19
11099;BME280;12223;42.650;23.364;2023-12-20T11:36:58;94340.22;;;7.96;66.76
11099;BME280;12223;42.650;23.364;2023-12-20T11:39:26;94327.13;;;8.64;65.95
11099;BME280;12223;42.650;23.364;2023-12-20T11:41:55;94332.00;;;8.60;63.79
11099;BME280;12223;42.650;23.364;2023-12-20T11:44:23;94329.44;;;8.54;64.83
11099;BME280;12223;42.650;23.364;2023-12-20T11:46:53;94314.88;;;9.24;64.10
11099;BME280;12223;42.650;23.364;2023-12-20T11:49:23;94322.94;;;9.29;62.22
11099;BME280;12223;42.650;23.364;2023-12-20T11:51:51;94309.94;;;8.79;62.52
11099;BME280;12223;42.650;23.364;2023-12-20T11:54:18;94306.16;;;9.23;61.44
11099;BME280;12223;42.650;23.364;2023-12-20T11:56:45;94305.25;;;9.48;61.24
11099;BME280;12223;42.650;23.364;2023-12-20T11:59:12;94302.50;;;9.84;59.28
11099;BME280;12223;42.650;23.364;2023-12-20T12:01:39;94290.88;;;10.27;56.81
11099;BME280;12223;42.650;23.364;2023-12-20T12:04:07;94272.41;;;10.62;55.75
11099;BME280;12223;42.650;23.364;2023-12-20T12:06:34;94275.84;;;10.74;54.80
11099;BME280;12223;42.650;23.364;2023-12-20T12:09:01;94271.22;;;10.93;56.08
11099;BME280;12223;42.650;23.364;2023-12-20T12:11:29;94269.34;;;11.05;54.85
11099;BME280;12223;42.650;23.364;2023-12-20T12:13:56;94272.31;;;11.08;54.31
11099;BME280;12223;42.650;23.364;2023-12-20T12:16:23;94257.22;;;11.20;54.33
11099;BME280;12223;42.650;23.364;2023-12-20T12:18:55;94252.53;;;11.39;53.12
11099;BME280;12223;42.650;23.364;2023-12-20T12:21:24;94255.44;;;11.38;52.27
11099;BME280;12223;42.650;23.364;2023-12-20T12:23:51;94258.22;;;11.31;53.23
11099;BME280;12223;42.650;23.364;2023-12-20T12:26:18;94242.09;;;11.44;52.30
11099;BME280;12223;42.650;23.364;2023-12-20T12:28:45;94253.13;;;11.41;52.53
11099;BME280;12223;42.650;23.364;2023-12-20T12:31:15;94246.16;;;11.52;53.25
11099;BME280;12223;42.650;23.364;2023-12-20T12:33:42;94245.28;;;11.75;52.09
11099;BME280;12223;42.650;23.364;2023-12-20T12:36:10;94239.25;;;11.96;51.68
11099;BME280;12223;42.650;23.364;2023-12-20T12:38:38;94234.84;;;11.85;50.95
11099;BME280;12223;42.650;23.364;2023-12-20T12:41:05;94228.06;;;12.05;50.73
11099;BME280;12223;42.650;23.364;2023-12-20T12:43:32;94220.75;;;11.96;51.05
11099;BME280;12223;42.650;23.364;2023-12-20T12:48:45;94228.38;;;10.91;53.19
11099;BME280;12223;42.650;23.364;2023-12-20T12:51:12;94227.66;;;10.43;55.95
11099;BME280;12223;42.650;23.364;2023-12-20T12:53:40;94234.59;;;11.13;53.40
11099;BME280;12223;42.650;23.364;2023-12-20T12:56:07;94231.22;;;10.26;55.07
11099;BME280;12223;42.650;23.364;2023-12-20T12:58:34;94227.28;;;9.93;56.47
11099;BME280;12223;42.650;23.364;2023-12-20T13:01:01;94229.59;;;10.13;56.67
11099;BME280;12223;42.650;23.364;2023-12-20T13:03:28;94219.63;;;9.39;59.32